»·PEaware :: UAL123 KDCA-KJFK

UAL123 :: KDCA-KJFK

FLIGHT INFORMATION

Flight Status: Arrived
Operator:
United Airlines
More flights by this operator :: More flights under this callsign
Pilot: Justin Z. (25672)
Aircraft: BOEING 767-300
(B763)
More flights by this aircraft type
Origin: KDCA Ronald Reagan Washington Natl
United States
Destination: KJFK Kennedy Intl
United States
More flights between these airports :: More routes between these airports
Route: DOCTR4 AGARD V44 SIE CAMRN4
File this flight plan on PilotEdge
Remarks:
Altitude:
(Current/Filed)
17,000ft
Speed:
(Current/Filed)
450kts
Departed: 26-Mar-20 12:37 PM
Arrived: 26-Mar-20 01:42 PM
Distance/Time
Traveled:
184nm/1:04
Distance/Time
To Go:
Arrived

Flight Plot

Page will automatically refresh every two minutes.

Flight plan parsing failed; only flown route is shown


Map Options




Map Legend


Flown Route
Filed Route
Departure Airport
Arrival Airport
Navaid (VOR, NDB)
Fix

Horizontal Profiles

Position Reports

Time Latitude Longitude Heading Altitude Ground
Speed
26-Mar-20 12:24 38.855379 -77.040425 163 25ft 0kts
26-Mar-20 12:25 38.853199 -77.039849 173 24ft 24kts
26-Mar-20 12:26 38.842751 -77.038284 176 18ft 28kts
26-Mar-20 12:27 38.842492 -77.036866 357 17ft 0kts
26-Mar-20 12:28 38.842492 -77.036866 357 17ft 0kts
26-Mar-20 12:29 38.842492 -77.036866 357 17ft 0kts
26-Mar-20 12:30 38.842492 -77.036866 357 17ft 0kts
26-Mar-20 12:31 38.842492 -77.036866 357 17ft 0kts
26-Mar-20 12:32 38.842492 -77.036866 357 17ft 0kts
26-Mar-20 12:33 38.842492 -77.036866 357 17ft 0kts
26-Mar-20 12:34 38.842492 -77.036866 357 17ft 0kts
26-Mar-20 12:35 38.843232 -77.036919 355 18ft 39kts
26-Mar-20 12:36 38.881400 -77.045652 328 1539ft 192kts
26-Mar-20 12:37 38.918632 -77.108058 317 4528ft 210kts
26-Mar-20 12:38 38.977239 -77.148399 354 6628ft 274kts
26-Mar-20 12:39 39.034996 -77.097055 68 9492ft 298kts
26-Mar-20 12:40 39.034221 -76.982202 96 10474ft 389kts
26-Mar-20 12:41 39.030667 -76.844576 86 13478ft 420kts
26-Mar-20 12:42 39.033525 -76.687397 85 16465ft 450kts
26-Mar-20 12:43 39.036809 -76.521488 86 16985ft 479kts
26-Mar-20 12:44 39.039593 -76.350316 86 17007ft 478kts
26-Mar-20 12:45 39.042096 -76.181585 86 17017ft 479kts
26-Mar-20 12:46 39.034686 -76.014063 115 17018ft 445kts
26-Mar-20 12:47 38.948324 -75.940311 186 17025ft 341kts
26-Mar-20 12:48 38.875742 -75.976359 234 17040ft 274kts
26-Mar-20 12:49 38.846328 -76.055274 270 17036ft 248kts
26-Mar-20 12:50 38.846540 -76.142064 274 17033ft 246kts
26-Mar-20 12:52 38.847051 -76.228485 283 17033ft 242kts
26-Mar-20 12:53 38.877541 -76.301241 315 17033ft 241kts
26-Mar-20 12:54 38.938948 -76.335113 348 17022ft 259kts
26-Mar-20 12:55 39.009799 -76.306280 30 17014ft 299kts
26-Mar-20 12:56 39.047111 -76.207851 90 17017ft 335kts
26-Mar-20 12:57 39.043403 -76.089068 85 17029ft 334kts
26-Mar-20 12:58 39.048713 -75.959287 83 17048ft 403kts
26-Mar-20 12:59 39.055710 -75.803085 84 17038ft 477kts
26-Mar-20 13:00 39.068251 -75.636016 63 16973ft 441kts
26-Mar-20 13:01 39.141265 -75.558767 1 16980ft 328kts
26-Mar-20 13:02 39.214160 -75.573776 333 17006ft 284kts
26-Mar-20 13:03 39.308537 -75.549639 33 17002ft 416kts
26-Mar-20 13:04 39.369866 -75.409905 74 16986ft 475kts
26-Mar-20 13:05 39.356442 -75.241858 113 16981ft 481kts
26-Mar-20 13:06 39.274685 -75.110071 135 16988ft 476kts
26-Mar-20 13:06 39.207925 -74.999131 125 16998ft 478kts
26-Mar-20 13:08 39.171515 -74.810020 79 16994ft 477kts
26-Mar-20 13:09 39.223668 -74.659776 41 16993ft 452kts
26-Mar-20 13:10 39.319109 -74.558036 32 16978ft 445kts
26-Mar-20 13:11 39.414213 -74.455065 33 16959ft 447kts
26-Mar-20 13:12 39.508051 -74.352607 33 16951ft 447kts
26-Mar-20 13:12 39.508051 -74.352607 33 16951ft 447kts
26-Mar-20 13:13 39.508051 -74.352607 33 16951ft 447kts
26-Mar-20 13:14 39.508051 -74.352607 33 16951ft 447kts
26-Mar-20 13:15 39.528610 -74.330098 33 16941ft 447kts
26-Mar-20 13:16 39.621039 -74.228483 33 16615ft 400kts
26-Mar-20 13:17 39.703518 -74.137869 34 15440ft 382kts
26-Mar-20 13:18 39.782108 -74.051108 34 14250ft 374kts
26-Mar-20 13:19 39.863614 -73.970043 23 13047ft 363kts
26-Mar-20 13:20 39.951807 -73.907576 24 11864ft 360kts
26-Mar-20 13:21 40.028280 -73.849802 33 11016ft 301kts
26-Mar-20 13:22 40.095470 -73.783005 33 11010ft 304kts
26-Mar-20 13:23 40.162072 -73.716331 33 11011ft 304kts
26-Mar-20 13:24 40.228752 -73.649387 33 11011ft 304kts
26-Mar-20 13:25 40.296002 -73.581711 33 10161ft 300kts
26-Mar-20 13:26 40.366923 -73.540766 6 9941ft 280kts
26-Mar-20 13:27 40.443318 -73.521820 5 9709ft 280kts
26-Mar-20 13:28 40.520093 -73.503041 5 9482ft 280kts
26-Mar-20 13:29 40.596429 -73.484341 5 9259ft 279kts
26-Mar-20 13:30 40.672399 -73.465684 6 9033ft 279kts
26-Mar-20 13:31 40.743190 -73.427893 3 7553ft 275kts
26-Mar-20 13:32 40.795583 -73.474577 300 5966ft 224kts
26-Mar-20 13:33 40.821110 -73.539609 261 4769ft 197kts
26-Mar-20 13:34 40.809927 -73.605132 254 3343ft 168kts
26-Mar-20 13:35 40.795086 -73.660013 216 2923ft 159kts
26-Mar-20 13:36 40.757718 -73.687442 209 2254ft 153kts
26-Mar-20 13:37 40.725256 -73.710547 209 1859ft 129kts
26-Mar-20 13:38 40.696924 -73.730635 208 1252ft 123kts
26-Mar-20 13:39 40.670690 -73.749198 207 683ft 123kts
26-Mar-20 13:40 40.645100 -73.767579 209 124ft 124kts
26-Mar-20 13:41 40.627040 -73.783623 26 11ft 17kts
26-Mar-20 13:42 40.629825 -73.781371 31 15ft 0kts
26-Mar-20 13:43 40.632106 -73.780062 11 15ft 33kts
26-Mar-20 13:44 40.636140 -73.780125 263 17ft 0kts
26-Mar-20 13:45 40.636140 -73.780125 263 17ft 0kts
26-Mar-20 13:46 40.636140 -73.780125 263 17ft 0kts

Navigation Log

Ident Type
Flight plan parsing failed, navigation log unavailable